sensor_id;sensor_type;location;lat;lon;timestamp;P1;durP1;ratioP1;P2;durP2;ratioP2
40867;SDS011;26586;50.708;22.412;2023-01-13T00:00:03;15.77;;;10.07;;
40867;SDS011;26586;50.708;22.412;2023-01-13T00:02:31;13.02;;;8.18;;
40867;SDS011;26586;50.708;22.412;2023-01-13T00:04:58;15.48;;;8.27;;
40867;SDS011;26586;50.708;22.412;2023-01-13T00:07:24;13.20;;;8.73;;
40867;SDS011;26586;50.708;22.412;2023-01-13T00:09:50;12.33;;;8.30;;
40867;SDS011;26586;50.708;22.412;2023-01-13T00:12:16;14.65;;;8.75;;
40867;SDS011;26586;50.708;22.412;2023-01-13T00:14:42;13.97;;;8.93;;
40867;SDS011;26586;50.708;22.412;2023-01-13T00:17:08;13.98;;;8.30;;
40867;SDS011;26586;50.708;22.412;2023-01-13T00:19:35;12.10;;;7.93;;
40867;SDS011;26586;50.708;22.412;2023-01-13T00:22:01;12.05;;;7.30;;
40867;SDS011;26586;50.708;22.412;2023-01-13T00:24:27;13.60;;;7.50;;
40867;SDS011;26586;50.708;22.412;2023-01-13T00:26:53;12.77;;;7.60;;
40867;SDS011;26586;50.708;22.412;2023-01-13T00:29:20;13.90;;;7.43;;
40867;SDS011;26586;50.708;22.412;2023-01-13T00:31:49;12.38;;;7.97;;
40867;SDS011;26586;50.708;22.412;2023-01-13T00:34:16;12.83;;;8.13;;
40867;SDS011;26586;50.708;22.412;2023-01-13T00:36:42;14.20;;;8.40;;
40867;SDS011;26586;50.708;22.412;2023-01-13T00:39:08;13.70;;;8.13;;
40867;SDS011;26586;50.708;22.412;2023-01-13T00:41:34;13.60;;;8.65;;
40867;SDS011;26586;50.708;22.412;2023-01-13T00:44:19;10.73;;;7.43;;
40867;SDS011;26586;50.708;22.412;2023-01-13T00:46:45;10.52;;;7.45;;
40867;SDS011;26586;50.708;22.412;2023-01-13T00:49:12;11.00;;;7.35;;
40867;SDS011;26586;50.708;22.412;2023-01-13T00:51:38;9.48;;;6.47;;
40867;SDS011;26586;50.708;22.412;2023-01-13T00:54:05;9.07;;;6.53;;
40867;SDS011;26586;50.708;22.412;2023-01-13T00:56:31;10.82;;;7.40;;
40867;SDS011;26586;50.708;22.412;2023-01-13T00:58:57;8.80;;;6.87;;
40867;SDS011;26586;50.708;22.412;2023-01-13T01:01:23;9.82;;;7.15;;
40867;SDS011;26586;50.708;22.412;2023-01-13T01:03:51;10.98;;;7.10;;
40867;SDS011;26586;50.708;22.412;2023-01-13T01:06:19;11.38;;;7.57;;
40867;SDS011;26586;50.708;22.412;2023-01-13T01:08:47;12.57;;;7.75;;
40867;SDS011;26586;50.708;22.412;2023-01-13T01:14:08;10.80;;;7.20;;
40867;SDS011;26586;50.708;22.412;2023-01-13T01:16:37;10.77;;;7.00;;
40867;SDS011;26586;50.708;22.412;2023-01-13T01:19:04;10.32;;;7.55;;
40867;SDS011;26586;50.708;22.412;2023-01-13T01:21:34;10.90;;;7.40;;
40867;SDS011;26586;50.708;22.412;2023-01-13T01:24:02;12.07;;;7.57;;
40867;SDS011;26586;50.708;22.412;2023-01-13T01:26:29;10.38;;;6.82;;
40867;SDS011;26586;50.708;22.412;2023-01-13T01:31:26;10.73;;;6.97;;
40867;SDS011;26586;50.708;22.412;2023-01-13T01:33:56;10.60;;;6.75;;
40867;SDS011;26586;50.708;22.412;2023-01-13T01:36:23;15.38;;;7.25;;
40867;SDS011;26586;50.708;22.412;2023-01-13T01:38:51;12.20;;;7.45;;
40867;SDS011;26586;50.708;22.412;2023-01-13T01:41:19;11.43;;;7.70;;
40867;SDS011;26586;50.708;22.412;2023-01-13T01:51:56;12.13;;;8.10;;
40867;SDS011;26586;50.708;22.412;2023-01-13T01:57:03;12.65;;;7.78;;
40867;SDS011;26586;50.708;22.412;2023-01-13T01:59:32;12.95;;;8.35;;
40867;SDS011;26586;50.708;22.412;2023-01-13T02:02:00;10.15;;;7.47;;
40867;SDS011;26586;50.708;22.412;2023-01-13T02:04:28;11.25;;;7.03;;
40867;SDS011;26586;50.708;22.412;2023-01-13T02:06:58;11.60;;;7.10;;
40867;SDS011;26586;50.708;22.412;2023-01-13T02:09:25;9.82;;;6.45;;
40867;SDS011;26586;50.708;22.412;2023-01-13T02:11:52;10.57;;;6.47;;
40867;SDS011;26586;50.708;22.412;2023-01-13T02:14:37;9.68;;;6.25;;
40867;SDS011;26586;50.708;22.412;2023-01-13T02:23:02;10.63;;;7.05;;
40867;SDS011;26586;50.708;22.412;2023-01-13T02:29:24;10.77;;;7.18;;
40867;SDS011;26586;50.708;22.412;2023-01-13T02:35:38;11.55;;;7.22;;
40867;SDS011;26586;50.708;22.412;2023-01-13T02:38:14;10.00;;;6.68;;
40867;SDS011;26586;50.708;22.412;2023-01-13T02:40:45;10.73;;;7.32;;
40867;SDS011;26586;50.708;22.412;2023-01-13T02:46:21;12.70;;;7.53;;
40867;SDS011;26586;50.708;22.412;2023-01-13T02:48:54;13.25;;;7.60;;
40867;SDS011;26586;50.708;22.412;2023-01-13T02:51:24;11.27;;;7.28;;
40867;SDS011;26586;50.708;22.412;2023-01-13T02:53:56;12.48;;;7.88;;
40867;SDS011;26586;50.708;22.412;2023-01-13T02:56:33;11.48;;;7.10;;
40867;SDS011;26586;50.708;22.412;2023-01-13T02:59:03;12.43;;;8.02;;
40867;SDS011;26586;50.708;22.412;2023-01-13T03:01:31;14.48;;;8.30;;
40867;SDS011;26586;50.708;22.412;2023-01-13T03:03:57;14.73;;;8.05;;
40867;SDS011;26586;50.708;22.412;2023-01-13T03:06:40;11.93;;;7.05;;
40867;SDS011;26586;50.708;22.412;2023-01-13T03:09:14;13.68;;;7.70;;
40867;SDS011;26586;50.708;22.412;2023-01-13T03:17:43;11.85;;;7.50;;
40867;SDS011;26586;50.708;22.412;2023-01-13T03:20:21;10.80;;;6.85;;
40867;SDS011;26586;50.708;22.412;2023-01-13T03:25:33;11.05;;;6.07;;
40867;SDS011;26586;50.708;22.412;2023-01-13T03:28:07;9.73;;;5.50;;
40867;SDS011;26586;50.708;22.412;2023-01-13T03:30:43;8.65;;;5.75;;
40867;SDS011;26586;50.708;22.412;2023-01-13T03:33:15;10.27;;;6.30;;
40867;SDS011;26586;50.708;22.412;2023-01-13T03:35:47;8.40;;;6.22;;
40867;SDS011;26586;50.708;22.412;2023-01-13T03:38:19;8.25;;;5.40;;
40867;SDS011;26586;50.708;22.412;2023-01-13T03:40:52;8.68;;;5.35;;
40867;SDS011;26586;50.708;22.412;2023-01-13T03:43:26;7.97;;;5.60;;
40867;SDS011;26586;50.708;22.412;2023-01-13T03:46:24;8.88;;;5.85;;
40867;SDS011;26586;50.708;22.412;2023-01-13T03:48:56;9.90;;;5.68;;
40867;SDS011;26586;50.708;22.412;2023-01-13T03:51:24;7.95;;;5.90;;
40867;SDS011;26586;50.708;22.412;2023-01-13T03:53:55;11.35;;;6.53;;
40867;SDS011;26586;50.708;22.412;2023-01-13T03:56:29;7.63;;;5.38;;
40867;SDS011;26586;50.708;22.412;2023-01-13T03:59:01;8.32;;;5.63;;
40867;SDS011;26586;50.708;22.412;2023-01-13T04:01:33;10.13;;;5.97;;
40867;SDS011;26586;50.708;22.412;2023-01-13T04:04:07;8.60;;;5.68;;
40867;SDS011;26586;50.708;22.412;2023-01-13T04:06:43;9.27;;;5.57;;
40867;SDS011;26586;50.708;22.412;2023-01-13T04:09:21;7.53;;;5.55;;
40867;SDS011;26586;50.708;22.412;2023-01-13T04:14:37;8.55;;;5.85;;
40867;SDS011;26586;50.708;22.412;2023-01-13T04:17:04;9.65;;;6.05;;
40867;SDS011;26586;50.708;22.412;2023-01-13T04:19:30;8.33;;;5.27;;
40867;SDS011;26586;50.708;22.412;2023-01-13T04:21:57;9.20;;;5.78;;
40867;SDS011;26586;50.708;22.412;2023-01-13T04:24:24;8.40;;;5.30;;
40867;SDS011;26586;50.708;22.412;2023-01-13T04:26:50;8.50;;;5.20;;
40867;SDS011;26586;50.708;22.412;2023-01-13T04:29:17;7.20;;;4.78;;
40867;SDS011;26586;50.708;22.412;2023-01-13T04:31:43;7.80;;;5.07;;
40867;SDS011;26586;50.708;22.412;2023-01-13T04:34:09;7.57;;;5.30;;
40867;SDS011;26586;50.708;22.412;2023-01-13T04:36:35;7.07;;;4.50;;
40867;SDS011;26586;50.708;22.412;2023-01-13T04:39:02;10.23;;;4.90;;
40867;SDS011;26586;50.708;22.412;2023-01-13T04:41:28;6.65;;;4.35;;
40867;SDS011;26586;50.708;22.412;2023-01-13T04:44:17;8.23;;;5.07;;
40867;SDS011;26586;50.708;22.412;2023-01-13T04:46:43;7.88;;;4.57;;
40867;SDS011;26586;50.708;22.412;2023-01-13T04:49:10;6.33;;;4.37;;
40867;SDS011;26586;50.708;22.412;2023-01-13T04:51:36;7.75;;;4.65;;
40867;SDS011;26586;50.708;22.412;2023-01-13T04:54:02;7.53;;;5.03;;
40867;SDS011;26586;50.708;22.412;2023-01-13T04:56:28;9.02;;;4.88;;
40867;SDS011;26586;50.708;22.412;2023-01-13T04:58:55;7.47;;;5.13;;
40867;SDS011;26586;50.708;22.412;2023-01-13T05:01:21;8.80;;;5.18;;
40867;SDS011;26586;50.708;22.412;2023-01-13T05:03:47;9.57;;;5.22;;
40867;SDS011;26586;50.708;22.412;2023-01-13T05:06:14;9.18;;;6.30;;
40867;SDS011;26586;50.708;22.412;2023-01-13T05:08:40;7.78;;;4.88;;
40867;SDS011;26586;50.708;22.412;2023-01-13T05:11:06;9.63;;;5.88;;
40867;SDS011;26586;50.708;22.412;2023-01-13T05:13:51;9.68;;;5.25;;
40867;SDS011;26586;50.708;22.412;2023-01-13T05:16:36;13.85;;;7.90;;
40867;SDS011;26586;50.708;22.412;2023-01-13T05:19:21;21.30;;;11.25;;
40867;SDS011;26586;50.708;22.412;2023-01-13T05:21:47;56.70;;;25.83;;
40867;SDS011;26586;50.708;22.412;2023-01-13T05:24:32;112.53;;;43.53;;
40867;SDS011;26586;50.708;22.412;2023-01-13T05:27:16;55.20;;;25.20;;
40867;SDS011;26586;50.708;22.412;2023-01-13T05:29:43;16.38;;;9.30;;
40867;SDS011;26586;50.708;22.412;2023-01-13T05:32:09;10.65;;;5.78;;
40867;SDS011;26586;50.708;22.412;2023-01-13T05:34:35;9.55;;;6.25;;
40867;SDS011;26586;50.708;22.412;2023-01-13T05:37:01;8.15;;;5.03;;
40867;SDS011;26586;50.708;22.412;2023-01-13T05:39:28;15.77;;;8.93;;
40867;SDS011;26586;50.708;22.412;2023-01-13T05:42:14;12.57;;;7.73;;
40867;SDS011;26586;50.708;22.412;2023-01-13T05:44:58;10.25;;;5.68;;
40867;SDS011;26586;50.708;22.412;2023-01-13T05:47:24;8.07;;;4.78;;
40867;SDS011;26586;50.708;22.412;2023-01-13T05:49:51;9.17;;;4.93;;
40867;SDS011;26586;50.708;22.412;2023-01-13T05:52:16;8.68;;;5.05;;
40867;SDS011;26586;50.708;22.412;2023-01-13T05:54:43;6.80;;;4.50;;
40867;SDS011;26586;50.708;22.412;2023-01-13T05:57:09;17.67;;;8.32;;
40867;SDS011;26586;50.708;22.412;2023-01-13T05:59:35;10.37;;;6.27;;
40867;SDS011;26586;50.708;22.412;2023-01-13T06:02:01;8.98;;;5.30;;
40867;SDS011;26586;50.708;22.412;2023-01-13T06:04:28;7.10;;;5.03;;
40867;SDS011;26586;50.708;22.412;2023-01-13T06:06:54;7.50;;;4.93;;
40867;SDS011;26586;50.708;22.412;2023-01-13T06:09:20;7.57;;;5.47;;
40867;SDS011;26586;50.708;22.412;2023-01-13T06:11:47;8.70;;;5.00;;
40867;SDS011;26586;50.708;22.412;2023-01-13T06:14:13;9.98;;;5.18;;
40867;SDS011;26586;50.708;22.412;2023-01-13T06:16:39;9.00;;;5.68;;
40867;SDS011;26586;50.708;22.412;2023-01-13T06:19:10;8.02;;;4.40;;
40867;SDS011;26586;50.708;22.412;2023-01-13T06:21:37;6.68;;;4.38;;
40867;SDS011;26586;50.708;22.412;2023-01-13T06:24:05;8.60;;;5.15;;
40867;SDS011;26586;50.708;22.412;2023-01-13T06:26:36;7.65;;;6.32;;
40867;SDS011;26586;50.708;22.412;2023-01-13T06:29:04;7.93;;;4.40;;
40867;SDS011;26586;50.708;22.412;2023-01-13T06:31:32;7.18;;;4.18;;
40867;SDS011;26586;50.708;22.412;2023-01-13T06:34:04;15.63;;;9.18;;
40867;SDS011;26586;50.708;22.412;2023-01-13T06:36:45;29.35;;;17.20;;
40867;SDS011;26586;50.708;22.412;2023-01-13T06:39:16;52.42;;;24.88;;
40867;SDS011;26586;50.708;22.412;2023-01-13T06:41:46;46.55;;;21.35;;
40867;SDS011;26586;50.708;22.412;2023-01-13T06:44:33;25.77;;;12.13;;
40867;SDS011;26586;50.708;22.412;2023-01-13T06:46:59;30.08;;;13.20;;
40867;SDS011;26586;50.708;22.412;2023-01-13T06:49:25;57.90;;;23.47;;
40867;SDS011;26586;50.708;22.412;2023-01-13T06:51:51;20.30;;;10.38;;
40867;SDS011;26586;50.708;22.412;2023-01-13T06:54:18;11.67;;;6.43;;
40867;SDS011;26586;50.708;22.412;2023-01-13T06:56:44;20.42;;;9.75;;
40867;SDS011;26586;50.708;22.412;2023-01-13T06:59:10;12.40;;;6.85;;
40867;SDS011;26586;50.708;22.412;2023-01-13T07:01:36;7.28;;;4.03;;
40867;SDS011;26586;50.708;22.412;2023-01-13T07:04:02;8.70;;;4.70;;
40867;SDS011;26586;50.708;22.412;2023-01-13T07:06:29;17.35;;;8.68;;
40867;SDS011;26586;50.708;22.412;2023-01-13T07:08:55;47.90;;;25.33;;
40867;SDS011;26586;50.708;22.412;2023-01-13T07:11:21;14.45;;;7.95;;
40867;SDS011;26586;50.708;22.412;2023-01-13T07:13:48;38.97;;;20.85;;
40867;SDS011;26586;50.708;22.412;2023-01-13T07:16:32;38.05;;;19.17;;
40867;SDS011;26586;50.708;22.412;2023-01-13T07:18:58;138.90;;;76.30;;
40867;SDS011;26586;50.708;22.412;2023-01-13T07:21:24;72.93;;;51.72;;
40867;SDS011;26586;50.708;22.412;2023-01-13T07:23:51;149.60;;;57.38;;
40867;SDS011;26586;50.708;22.412;2023-01-13T07:26:17;112.68;;;98.22;;
40867;SDS011;26586;50.708;22.412;2023-01-13T07:28:43;187.40;;;78.50;;
40867;SDS011;26586;50.708;22.412;2023-01-13T07:31:16;282.40;;;222.88;;
40867;SDS011;26586;50.708;22.412;2023-01-13T07:33:45;242.75;;;168.02;;
40867;SDS011;26586;50.708;22.412;2023-01-13T07:36:12;304.48;;;118.97;;
40867;SDS011;26586;50.708;22.412;2023-01-13T07:38:39;148.85;;;121.35;;
40867;SDS011;26586;50.708;22.412;2023-01-13T07:41:05;398.05;;;265.88;;
40867;SDS011;26586;50.708;22.412;2023-01-13T07:43:50;238.45;;;147.27;;
40867;SDS011;26586;50.708;22.412;2023-01-13T07:46:17;140.85;;;90.45;;
40867;SDS011;26586;50.708;22.412;2023-01-13T07:48:43;354.42;;;183.50;;
40867;SDS011;26586;50.708;22.412;2023-01-13T07:51:11;110.32;;;59.22;;
40867;SDS011;26586;50.708;22.412;2023-01-13T07:53:38;161.90;;;83.25;;
40867;SDS011;26586;50.708;22.412;2023-01-13T07:56:04;51.80;;;22.02;;
40867;SDS011;26586;50.708;22.412;2023-01-13T07:58:32;59.75;;;33.03;;
40867;SDS011;26586;50.708;22.412;2023-01-13T08:01:01;29.88;;;20.15;;
40867;SDS011;26586;50.708;22.412;2023-01-13T08:03:32;25.63;;;15.32;;
40867;SDS011;26586;50.708;22.412;2023-01-13T08:06:01;106.50;;;47.25;;
40867;SDS011;26586;50.708;22.412;2023-01-13T08:08:29;111.07;;;46.72;;
40867;SDS011;26586;50.708;22.412;2023-01-13T08:11:04;24.25;;;14.13;;
40867;SDS011;26586;50.708;22.412;2023-01-13T08:13:32;23.42;;;12.43;;
40867;SDS011;26586;50.708;22.412;2023-01-13T08:16:00;120.20;;;43.90;;
40867;SDS011;26586;50.708;22.412;2023-01-13T08:18:28;56.92;;;24.00;;
40867;SDS011;26586;50.708;22.412;2023-01-13T08:20:55;36.38;;;17.90;;
40867;SDS011;26586;50.708;22.412;2023-01-13T08:23:25;18.83;;;11.45;;
40867;SDS011;26586;50.708;22.412;2023-01-13T08:25:51;29.80;;;15.77;;
40867;SDS011;26586;50.708;22.412;2023-01-13T08:28:19;10.98;;;7.05;;
40867;SDS011;26586;50.708;22.412;2023-01-13T08:30:45;8.63;;;4.63;;
40867;SDS011;26586;50.708;22.412;2023-01-13T08:33:11;36.60;;;14.37;;
40867;SDS011;26586;50.708;22.412;2023-01-13T08:35:38;17.70;;;8.00;;
40867;SDS011;26586;50.708;22.412;2023-01-13T08:38:06;27.67;;;17.02;;
40867;SDS011;26586;50.708;22.412;2023-01-13T08:40:32;26.40;;;16.92;;
40867;SDS011;26586;50.708;22.412;2023-01-13T08:42:59;45.40;;;29.15;;
40867;SDS011;26586;50.708;22.412;2023-01-13T08:45:26;15.55;;;9.65;;
40867;SDS011;26586;50.708;22.412;2023-01-13T08:47:52;16.37;;;8.47;;
40867;SDS011;26586;50.708;22.412;2023-01-13T08:50:18;28.02;;;15.70;;
40867;SDS011;26586;50.708;22.412;2023-01-13T08:52:45;42.72;;;19.25;;
40867;SDS011;26586;50.708;22.412;2023-01-13T08:55:11;27.45;;;13.48;;
40867;SDS011;26586;50.708;22.412;2023-01-13T08:57:38;20.40;;;12.57;;
40867;SDS011;26586;50.708;22.412;2023-01-13T09:00:04;13.57;;;7.47;;
40867;SDS011;26586;50.708;22.412;2023-01-13T09:02:33;49.05;;;22.27;;
40867;SDS011;26586;50.708;22.412;2023-01-13T09:04:59;25.35;;;12.60;;
40867;SDS011;26586;50.708;22.412;2023-01-13T09:07:28;31.15;;;19.55;;
40867;SDS011;26586;50.708;22.412;2023-01-13T09:09:55;32.00;;;18.50;;
40867;SDS011;26586;50.708;22.412;2023-01-13T09:12:21;35.38;;;19.85;;
40867;SDS011;26586;50.708;22.412;2023-01-13T09:15:06;59.13;;;28.92;;
40867;SDS011;26586;50.708;22.412;2023-01-13T09:17:33;48.47;;;22.98;;
40867;SDS011;26586;50.708;22.412;2023-01-13T09:19:59;55.83;;;27.17;;
40867;SDS011;26586;50.708;22.412;2023-01-13T09:22:25;18.67;;;9.50;;
40867;SDS011;26586;50.708;22.412;2023-01-13T09:24:52;18.85;;;12.40;;
40867;SDS011;26586;50.708;22.412;2023-01-13T09:27:19;8.25;;;5.57;;
40867;SDS011;26586;50.708;22.412;2023-01-13T09:29:46;10.65;;;7.18;;
40867;SDS011;26586;50.708;22.412;2023-01-13T09:32:13;29.35;;;18.80;;
40867;SDS011;26586;50.708;22.412;2023-01-13T09:34:39;11.18;;;6.70;;
40867;SDS011;26586;50.708;22.412;2023-01-13T09:37:37;20.15;;;11.50;;
40867;SDS011;26586;50.708;22.412;2023-01-13T09:40:10;10.60;;;7.82;;
40867;SDS011;26586;50.708;22.412;2023-01-13T09:42:44;6.75;;;4.97;;
40867;SDS011;26586;50.708;22.412;2023-01-13T09:45:41;9.85;;;6.55;;
40867;SDS011;26586;50.708;22.412;2023-01-13T09:48:26;15.38;;;10.15;;
40867;SDS011;26586;50.708;22.412;2023-01-13T09:51:08;9.93;;;5.88;;
40867;SDS011;26586;50.708;22.412;2023-01-13T09:53:42;7.55;;;4.75;;
40867;SDS011;26586;50.708;22.412;2023-01-13T09:56:16;5.72;;;3.83;;
40867;SDS011;26586;50.708;22.412;2023-01-13T09:58:43;31.20;;;19.53;;
40867;SDS011;26586;50.708;22.412;2023-01-13T10:03:40;18.25;;;13.18;;
40867;SDS011;26586;50.708;22.412;2023-01-13T10:06:20;16.08;;;11.82;;
40867;SDS011;26586;50.708;22.412;2023-01-13T10:08:55;13.80;;;12.00;;
40867;SDS011;26586;50.708;22.412;2023-01-13T10:11:23;9.93;;;6.95;;
40867;SDS011;26586;50.708;22.412;2023-01-13T10:14:12;11.10;;;7.10;;
40867;SDS011;26586;50.708;22.412;2023-01-13T10:16:44;9.10;;;6.88;;
40867;SDS011;26586;50.708;22.412;2023-01-13T10:19:18;12.88;;;9.52;;
40867;SDS011;26586;50.708;22.412;2023-01-13T10:22:02;5.95;;;4.35;;
40867;SDS011;26586;50.708;22.412;2023-01-13T10:27:45;10.65;;;6.82;;
40867;SDS011;26586;50.708;22.412;2023-01-13T10:30:19;12.73;;;9.38;;
40867;SDS011;26586;50.708;22.412;2023-01-13T10:33:13;11.15;;;7.45;;
40867;SDS011;26586;50.708;22.412;2023-01-13T10:38:40;43.10;;;26.77;;
40867;SDS011;26586;50.708;22.412;2023-01-13T10:43:57;22.58;;;15.05;;
40867;SDS011;26586;50.708;22.412;2023-01-13T10:46:32;24.45;;;13.65;;
40867;SDS011;26586;50.708;22.412;2023-01-13T10:49:22;9.13;;;6.90;;
40867;SDS011;26586;50.708;22.412;2023-01-13T10:51:50;12.77;;;9.98;;
40867;SDS011;26586;50.708;22.412;2023-01-13T10:54:20;20.08;;;12.27;;
40867;SDS011;26586;50.708;22.412;2023-01-13T10:56:49;12.13;;;8.75;;
40867;SDS011;26586;50.708;22.412;2023-01-13T10:59:35;12.57;;;8.48;;
40867;SDS011;26586;50.708;22.412;2023-01-13T11:02:02;10.17;;;7.10;;
40867;SDS011;26586;50.708;22.412;2023-01-13T11:07:46;16.45;;;10.55;;
40867;SDS011;26586;50.708;22.412;2023-01-13T11:10:26;12.77;;;10.45;;
40867;SDS011;26586;50.708;22.412;2023-01-13T11:15:49;19.13;;;15.30;;
40867;SDS011;26586;50.708;22.412;2023-01-13T11:18:22;15.73;;;11.30;;
40867;SDS011;26586;50.708;22.412;2023-01-13T11:21:38;14.55;;;10.30;;
40867;SDS011;26586;50.708;22.412;2023-01-13T11:24:14;18.42;;;12.63;;
40867;SDS011;26586;50.708;22.412;2023-01-13T11:26:48;20.50;;;11.48;;
40867;SDS011;26586;50.708;22.412;2023-01-13T11:32:17;11.18;;;7.82;;
40867;SDS011;26586;50.708;22.412;2023-01-13T11:34:46;26.73;;;13.80;;
40867;SDS011;26586;50.708;22.412;2023-01-13T11:37:23;19.38;;;10.18;;
40867;SDS011;26586;50.708;22.412;2023-01-13T11:47:36;19.83;;;10.65;;
40867;SDS011;26586;50.708;22.412;2023-01-13T11:50:05;16.92;;;8.82;;
40867;SDS011;26586;50.708;22.412;2023-01-13T11:59:32;27.88;;;19.92;;
40867;SDS011;26586;50.708;22.412;2023-01-13T12:01:59;36.65;;;28.02;;
40867;SDS011;26586;50.708;22.412;2023-01-13T12:10:30;21.55;;;13.00;;
40867;SDS011;26586;50.708;22.412;2023-01-13T12:22:11;44.08;;;18.45;;
40867;SDS011;26586;50.708;22.412;2023-01-13T12:29:40;32.92;;;14.30;;
40867;SDS011;26586;50.708;22.412;2023-01-13T12:32:10;25.85;;;13.90;;
40867;SDS011;26586;50.708;22.412;2023-01-13T12:34:51;20.90;;;11.55;;
40867;SDS011;26586;50.708;22.412;2023-01-13T12:38:00;38.50;;;20.33;;
40867;SDS011;26586;50.708;22.412;2023-01-13T12:40:38;17.05;;;8.93;;
40867;SDS011;26586;50.708;22.412;2023-01-13T12:46:50;24.27;;;16.17;;
40867;SDS011;26586;50.708;22.412;2023-01-13T12:53:51;9.13;;;6.95;;
40867;SDS011;26586;50.708;22.412;2023-01-13T12:56:26;29.02;;;15.50;;
40867;SDS011;26586;50.708;22.412;2023-01-13T13:01:48;62.50;;;42.13;;
40867;SDS011;26586;50.708;22.412;2023-01-13T13:04:44;35.78;;;18.88;;
40867;SDS011;26586;50.708;22.412;2023-01-13T13:09:59;39.25;;;13.73;;
40867;SDS011;26586;50.708;22.412;2023-01-13T13:15:20;138.85;;;54.67;;
40867;SDS011;26586;50.708;22.412;2023-01-13T13:26:19;24.95;;;12.68;;
40867;SDS011;26586;50.708;22.412;2023-01-13T13:32:05;40.60;;;21.63;;
40867;SDS011;26586;50.708;22.412;2023-01-13T13:34:44;36.92;;;13.75;;
40867;SDS011;26586;50.708;22.412;2023-01-13T13:37:34;18.30;;;13.07;;
40867;SDS011;26586;50.708;22.412;2023-01-13T13:40:25;17.55;;;11.45;;
40867;SDS011;26586;50.708;22.412;2023-01-13T13:43:13;18.15;;;12.07;;
40867;SDS011;26586;50.708;22.412;2023-01-13T13:45:59;23.77;;;15.48;;
40867;SDS011;26586;50.708;22.412;2023-01-13T13:48:50;23.98;;;15.98;;
40867;SDS011;26586;50.708;22.412;2023-01-13T13:53:57;90.22;;;43.38;;
40867;SDS011;26586;50.708;22.412;2023-01-13T13:56:25;67.88;;;36.58;;
40867;SDS011;26586;50.708;22.412;2023-01-13T13:58:53;51.83;;;31.33;;
40867;SDS011;26586;50.708;22.412;2023-01-13T14:04:14;89.70;;;53.75;;
40867;SDS011;26586;50.708;22.412;2023-01-13T14:06:54;56.03;;;33.78;;
40867;SDS011;26586;50.708;22.412;2023-01-13T14:09:22;77.95;;;47.05;;
40867;SDS011;26586;50.708;22.412;2023-01-13T14:12:03;28.95;;;18.45;;
40867;SDS011;26586;50.708;22.412;2023-01-13T14:14:33;111.93;;;48.50;;
40867;SDS011;26586;50.708;22.412;2023-01-13T14:17:00;30.73;;;22.17;;
40867;SDS011;26586;50.708;22.412;2023-01-13T14:19:32;32.97;;;21.83;;
40867;SDS011;26586;50.708;22.412;2023-01-13T14:22:01;25.33;;;16.63;;
40867;SDS011;26586;50.708;22.412;2023-01-13T14:24:35;18.25;;;13.02;;
40867;SDS011;26586;50.708;22.412;2023-01-13T14:27:21;18.20;;;11.23;;
40867;SDS011;26586;50.708;22.412;2023-01-13T14:29:56;16.15;;;9.85;;
40867;SDS011;26586;50.708;22.412;2023-01-13T14:32:40;21.08;;;12.13;;
40867;SDS011;26586;50.708;22.412;2023-01-13T14:35:14;16.92;;;10.63;;
40867;SDS011;26586;50.708;22.412;2023-01-13T14:37:43;21.95;;;12.32;;
40867;SDS011;26586;50.708;22.412;2023-01-13T14:43:09;17.67;;;10.77;;
40867;SDS011;26586;50.708;22.412;2023-01-13T14:45:41;23.38;;;17.13;;
40867;SDS011;26586;50.708;22.412;2023-01-13T14:48:31;20.42;;;14.07;;
40867;SDS011;26586;50.708;22.412;2023-01-13T14:51:05;21.98;;;14.80;;
40867;SDS011;26586;50.708;22.412;2023-01-13T14:59:30;22.75;;;17.20;;
40867;SDS011;26586;50.708;22.412;2023-01-13T15:08:02;28.30;;;20.00;;
40867;SDS011;26586;50.708;22.412;2023-01-13T15:10:55;47.97;;;28.75;;
40867;SDS011;26586;50.708;22.412;2023-01-13T15:13:30;51.50;;;33.58;;
40867;SDS011;26586;50.708;22.412;2023-01-13T15:16:06;27.15;;;14.27;;
40867;SDS011;26586;50.708;22.412;2023-01-13T15:18:49;51.60;;;27.23;;
40867;SDS011;26586;50.708;22.412;2023-01-13T15:21:16;20.23;;;11.18;;
40867;SDS011;26586;50.708;22.412;2023-01-13T15:23:42;18.88;;;11.48;;
40867;SDS011;26586;50.708;22.412;2023-01-13T15:26:20;16.17;;;8.90;;
40867;SDS011;26586;50.708;22.412;2023-01-13T15:28:51;22.23;;;13.05;;
40867;SDS011;26586;50.708;22.412;2023-01-13T15:31:19;16.23;;;10.18;;
40867;SDS011;26586;50.708;22.412;2023-01-13T15:33:46;16.10;;;8.50;;
40867;SDS011;26586;50.708;22.412;2023-01-13T15:36:25;19.40;;;11.90;;
40867;SDS011;26586;50.708;22.412;2023-01-13T15:38:54;16.65;;;9.63;;
40867;SDS011;26586;50.708;22.412;2023-01-13T15:41:20;17.42;;;10.80;;
40867;SDS011;26586;50.708;22.412;2023-01-13T15:44:08;15.50;;;9.63;;
40867;SDS011;26586;50.708;22.412;2023-01-13T15:46:55;18.02;;;10.50;;
40867;SDS011;26586;50.708;22.412;2023-01-13T15:49:35;16.63;;;9.63;;
40867;SDS011;26586;50.708;22.412;2023-01-13T15:54:44;10.52;;;6.45;;
40867;SDS011;26586;50.708;22.412;2023-01-13T15:57:14;51.03;;;24.10;;
40867;SDS011;26586;50.708;22.412;2023-01-13T15:59:47;41.65;;;17.88;;
40867;SDS011;26586;50.708;22.412;2023-01-13T16:02:17;41.85;;;15.82;;
40867;SDS011;26586;50.708;22.412;2023-01-13T16:04:43;29.77;;;13.57;;
40867;SDS011;26586;50.708;22.412;2023-01-13T16:07:14;48.17;;;18.35;;
40867;SDS011;26586;50.708;22.412;2023-01-13T16:09:43;42.05;;;16.30;;
40867;SDS011;26586;50.708;22.412;2023-01-13T16:12:11;37.95;;;14.18;;
40867;SDS011;26586;50.708;22.412;2023-01-13T16:14:41;52.70;;;24.58;;
40867;SDS011;26586;50.708;22.412;2023-01-13T16:17:13;57.63;;;16.27;;
40867;SDS011;26586;50.708;22.412;2023-01-13T16:19:41;50.15;;;15.98;;
40867;SDS011;26586;50.708;22.412;2023-01-13T16:22:12;19.42;;;9.52;;
40867;SDS011;26586;50.708;22.412;2023-01-13T16:24:39;36.40;;;14.10;;
40867;SDS011;26586;50.708;22.412;2023-01-13T16:29:44;29.10;;;11.95;;
40867;SDS011;26586;50.708;22.412;2023-01-13T16:32:12;19.58;;;12.43;;
40867;SDS011;26586;50.708;22.412;2023-01-13T16:39:48;35.78;;;16.35;;
40867;SDS011;26586;50.708;22.412;2023-01-13T16:42:15;24.65;;;12.68;;
40867;SDS011;26586;50.708;22.412;2023-01-13T16:44:42;16.08;;;8.77;;
40867;SDS011;26586;50.708;22.412;2023-01-13T16:47:12;20.77;;;10.90;;
40867;SDS011;26586;50.708;22.412;2023-01-13T16:49:41;26.40;;;14.60;;
40867;SDS011;26586;50.708;22.412;2023-01-13T16:52:11;28.20;;;15.45;;
40867;SDS011;26586;50.708;22.412;2023-01-13T16:54:38;45.72;;;22.42;;
40867;SDS011;26586;50.708;22.412;2023-01-13T16:57:05;104.63;;;48.15;;
40867;SDS011;26586;50.708;22.412;2023-01-13T16:59:38;118.45;;;55.85;;
40867;SDS011;26586;50.708;22.412;2023-01-13T17:02:15;30.05;;;23.00;;
40867;SDS011;26586;50.708;22.412;2023-01-13T17:04:43;27.15;;;22.30;;
40867;SDS011;26586;50.708;22.412;2023-01-13T17:07:12;20.50;;;15.82;;
40867;SDS011;26586;50.708;22.412;2023-01-13T17:09:42;20.30;;;14.90;;
40867;SDS011;26586;50.708;22.412;2023-01-13T17:12:09;14.52;;;9.80;;
40867;SDS011;26586;50.708;22.412;2023-01-13T17:14:36;15.50;;;10.80;;
40867;SDS011;26586;50.708;22.412;2023-01-13T17:17:05;14.35;;;10.10;;
40867;SDS011;26586;50.708;22.412;2023-01-13T17:19:41;19.83;;;13.85;;